Time;durP1;ratioP1;P1;durP2;ratioP2;P2;SDS_P1;SDS_P2;PMS_P1;PMS_P2;Temp;Humidity;BMP_temperature;BMP_pressure;BME280_temperature;BME280_humidity;BME280_pressure;Samples;Min_cycle;Max_cycle;Signal;HPM_P1;HPM_P2
2024/04/07 00:02:09;;;;;;;35.33;21.95;;;;;;;;;;5033161;28;20017;-61
2024/04/07 00:04:34;;;;;;;34.83;20.95;;;;;;;;;;5032002;28;20032;-62
2024/04/07 00:06:59;;;;;;;38.05;21.95;;;;;;;;;;5033227;28;20409;-62
2024/04/07 00:09:25;;;;;;;31.52;21.85;;;;;;;;;;5033011;28;20025;-65
2024/04/07 00:11:50;;;;;;;36.83;21.25;;;;;;;;;;5031781;28;20026;-62
2024/04/07 00:14:16;;;;;;;34.35;21.92;;;;;;;;;;5033516;28;20095;-63
2024/04/07 00:16:42;;;;;;;35.70;22.80;;;;;;;;;;5032998;28;20134;-62
2024/04/07 00:19:08;;;;;;;31.75;21.63;;;;;;;;;;5032954;28;20560;-61
2024/04/07 00:21:34;;;;;;;32.42;21.77;;;;;;;;;;5032906;28;20486;-63
2024/04/07 00:24:00;;;;;;;34.95;21.63;;;;;;;;;;5033084;28;20460;-61
2024/04/07 00:26:26;;;;;;;35.08;22.73;;;;;;;;;;5032600;28;20021;-60
2024/04/07 00:28:51;;;;;;;30.77;22.27;;;;;;;;;;5032820;28;20036;-62
2024/04/07 00:31:16;;;;;;;34.17;21.40;;;;;;;;;;5033191;28;20107;-61
2024/04/07 00:33:42;;;;;;;36.13;21.55;;;;;;;;;;5032659;28;20371;-61
2024/04/07 00:36:09;;;;;;;39.08;22.23;;;;;;;;;;5032828;28;20033;-61
2024/04/07 00:38:34;;;;;;;37.20;22.33;;;;;;;;;;5032520;28;20029;-58
2024/04/07 00:41:00;;;;;;;33.08;21.83;;;;;;;;;;5032096;28;20036;-61
2024/04/07 00:43:26;;;;;;;34.10;21.67;;;;;;;;;;5032765;28;20060;-60
2024/04/07 00:45:53;;;;;;;36.28;22.98;;;;;;;;;;5032274;28;20421;-60
2024/04/07 00:48:18;;;;;;;36.00;21.42;;;;;;;;;;5032712;28;20117;-62
2024/04/07 00:50:48;;;;;;;32.17;22.05;;;;;;;;;;5013869;28;20109;-62
2024/04/07 00:53:15;;;;;;;32.85;21.33;;;;;;;;;;5012971;28;20109;-62
2024/04/07 00:55:41;;;;;;;35.95;22.17;;;;;;;;;;5012704;28;20491;-62
2024/04/07 00:58:08;;;;;;;36.40;21.58;;;;;;;;;;5012730;28;20025;-61
2024/04/07 01:00:34;;;;;;;33.10;22.10;;;;;;;;;;5014416;28;20037;-62
2024/04/07 01:02:59;;;;;;;33.45;20.75;;;;;;;;;;5032511;28;20051;-62
2024/04/07 01:05:24;;;;;;;34.45;22.48;;;;;;;;;;5032496;28;20025;-63
2024/04/07 01:07:50;;;;;;;36.10;21.98;;;;;;;;;;5032679;28;20030;-62
2024/04/07 01:10:15;;;;;;;34.85;23.15;;;;;;;;;;5032599;28;20332;-63
2024/04/07 01:12:50;;;;;;;35.42;21.55;;;;;;;;;;5032342;28;20072;-61
2024/04/07 01:15:15;;;;;;;39.78;23.08;;;;;;;;;;5030951;28;20033;-63
2024/04/07 01:17:41;;;;;;;32.45;22.90;;;;;;;;;;5032177;28;20448;-61
2024/04/07 01:20:09;;;;;;;39.88;23.17;;;;;;;;;;5032225;28;20036;-61
2024/04/07 01:22:35;;;;;;;31.67;22.55;;;;;;;;;;5032314;28;20025;-61
2024/04/07 01:25:00;;;;;;;33.58;22.08;;;;;;;;;;5032150;28;20025;-62
2024/04/07 01:27:25;;;;;;;39.20;22.98;;;;;;;;;;5032279;28;20028;-61
2024/04/07 01:29:51;;;;;;;31.67;22.27;;;;;;;;;;5032047;28;20437;-60
2024/04/07 01:32:17;;;;;;;36.38;22.75;;;;;;;;;;5032205;28;20091;-62
2024/04/07 01:34:42;;;;;;;36.35;22.48;;;;;;;;;;5032114;28;20041;-61
2024/04/07 01:37:07;;;;;;;36.55;23.17;;;;;;;;;;5031972;28;20052;-61
2024/04/07 01:39:33;;;;;;;33.80;21.70;;;;;;;;;;5031839;28;20014;-62
2024/04/07 01:41:58;;;;;;;34.97;22.88;;;;;;;;;;5031954;28;20459;-60
2024/04/07 01:44:23;;;;;;;31.42;22.45;;;;;;;;;;5032469;28;20030;-60
2024/04/07 01:46:49;;;;;;;32.15;21.45;;;;;;;;;;5031926;28;20352;-60
2024/04/07 01:49:14;;;;;;;33.85;22.63;;;;;;;;;;5035104;28;20029;-61
2024/04/07 01:51:39;;;;;;;30.58;22.00;;;;;;;;;;5035870;28;20086;-61
2024/04/07 01:54:05;;;;;;;32.58;22.40;;;;;;;;;;5034850;28;20028;-61
2024/04/07 01:56:31;;;;;;;33.30;22.15;;;;;;;;;;5035648;28;20045;-62
2024/04/07 01:58:56;;;;;;;31.52;21.95;;;;;;;;;;5034011;28;20349;-60
2024/04/07 02:01:22;;;;;;;30.58;22.50;;;;;;;;;;5035909;28;20094;-60
2024/04/07 02:03:48;;;;;;;37.30;23.05;;;;;;;;;;5035394;28;20112;-61
2024/04/07 02:06:13;;;;;;;34.03;22.80;;;;;;;;;;5035291;28;20026;-60
2024/04/07 02:08:39;;;;;;;33.67;22.98;;;;;;;;;;5035632;28;20401;-59
2024/04/07 02:11:04;;;;;;;34.58;22.30;;;;;;;;;;5035611;28;20163;-61
2024/04/07 02:13:29;;;;;;;34.85;22.23;;;;;;;;;;5034687;28;20017;-60
2024/04/07 02:15:59;;;;;;;34.10;22.63;;;;;;;;;;5035075;28;20080;-57
2024/04/07 02:18:24;;;;;;;34.75;22.50;;;;;;;;;;5035420;28;20021;-56
2024/04/07 02:20:51;;;;;;;33.03;22.40;;;;;;;;;;5035783;28;20167;-62
2024/04/07 02:23:16;;;;;;;30.20;22.05;;;;;;;;;;5034494;28;20029;-61
2024/04/07 02:25:42;;;;;;;33.97;23.63;;;;;;;;;;5035024;28;20379;-62
2024/04/07 02:28:07;;;;;;;32.60;21.55;;;;;;;;;;5035141;28;20432;-61
2024/04/07 02:30:35;;;;;;;30.83;22.33;;;;;;;;;;5035075;28;20028;-61
2024/04/07 02:33:03;;;;;;;33.90;22.27;;;;;;;;;;5035041;28;20029;-61
2024/04/07 02:35:28;;;;;;;34.85;22.88;;;;;;;;;;5034804;28;20029;-61
2024/04/07 02:37:53;;;;;;;35.28;23.85;;;;;;;;;;5034915;28;20052;-61
2024/04/07 02:40:19;;;;;;;34.10;23.27;;;;;;;;;;5034984;28;20060;-61
2024/04/07 02:42:45;;;;;;;36.75;23.83;;;;;;;;;;5034598;28;20013;-61
2024/04/07 02:48:07;;;;;;;34.95;23.75;;;;;;;;;;5034877;28;20092;-59
2024/04/07 02:50:33;;;;;;;34.40;23.30;;;;;;;;;;5034683;28;20086;-60
2024/04/07 02:52:58;;;;;;;34.10;23.70;;;;;;;;;;5034778;28;20049;-58
2024/04/07 02:55:24;;;;;;;35.00;22.98;;;;;;;;;;5034605;28;20084;-59
2024/04/07 02:57:49;;;;;;;33.55;22.52;;;;;;;;;;5034548;28;20029;-56
2024/04/07 03:00:15;;;;;;;33.47;23.85;;;;;;;;;;5033422;28;20029;-63
2024/04/07 03:02:41;;;;;;;34.30;23.25;;;;;;;;;;5033965;28;20450;-61
2024/04/07 03:05:07;;;;;;;34.03;23.33;;;;;;;;;;5034595;28;20040;-62
2024/04/07 03:07:33;;;;;;;34.90;24.65;;;;;;;;;;5034194;28;20029;-62
2024/04/07 03:09:58;;;;;;;39.13;26.08;;;;;;;;;;5034343;28;20090;-61
2024/04/07 03:12:23;;;;;;;35.15;24.05;;;;;;;;;;5033944;28;20108;-62
2024/04/07 03:14:52;;;;;;;37.25;26.13;;;;;;;;;;5034019;28;20068;-60
2024/04/07 03:17:18;;;;;;;36.38;24.42;;;;;;;;;;5034107;28;20113;-61
2024/04/07 03:19:43;;;;;;;37.85;26.98;;;;;;;;;;5033919;28;20028;-58
2024/04/07 03:22:09;;;;;;;40.22;25.63;;;;;;;;;;5033803;28;20041;-60
2024/04/07 03:24:34;;;;;;;36.45;25.15;;;;;;;;;;5033966;28;20024;-60
2024/04/07 03:26:59;;;;;;;36.58;26.10;;;;;;;;;;5033130;28;20029;-60
2024/04/07 03:29:25;;;;;;;38.22;25.25;;;;;;;;;;5034032;28;20029;-62
2024/04/07 03:31:50;;;;;;;35.08;24.45;;;;;;;;;;5033804;28;20025;-63
2024/04/07 03:34:15;;;;;;;37.85;25.73;;;;;;;;;;5033523;28;20033;-63
2024/04/07 03:36:41;;;;;;;39.15;26.23;;;;;;;;;;5032013;28;20440;-62
2024/04/07 03:39:06;;;;;;;35.13;24.58;;;;;;;;;;5033713;28;20443;-64
2024/04/07 03:41:32;;;;;;;36.72;24.73;;;;;;;;;;5033026;28;20484;-62
2024/04/07 03:43:57;;;;;;;33.22;24.80;;;;;;;;;;5033714;28;20018;-61
2024/04/07 03:46:22;;;;;;;35.80;24.70;;;;;;;;;;5033818;28;20021;-62
2024/04/07 03:48:48;;;;;;;33.08;23.48;;;;;;;;;;5033453;28;20087;-61
2024/04/07 03:51:13;;;;;;;35.50;23.20;;;;;;;;;;5033429;28;20048;-62
2024/04/07 03:53:38;;;;;;;31.63;22.10;;;;;;;;;;5033235;28;20025;-63
2024/04/07 03:56:04;;;;;;;30.75;23.10;;;;;;;;;;5033333;28;20479;-64
2024/04/07 03:58:30;;;;;;;31.00;22.83;;;;;;;;;;5033847;28;20134;-62
2024/04/07 04:01:00;;;;;;;34.15;22.08;;;;;;;;;;5033051;28;20025;-62
2024/04/07 04:03:25;;;;;;;29.48;21.67;;;;;;;;;;5033351;28;20456;-61
2024/04/07 04:05:53;;;;;;;36.35;22.27;;;;;;;;;;5033493;28;20103;-58
2024/04/07 04:08:18;;;;;;;29.45;21.85;;;;;;;;;;5033078;28;20013;-61
2024/04/07 04:10:44;;;;;;;29.02;20.65;;;;;;;;;;5032732;28;20031;-60
2024/04/07 04:13:09;;;;;;;31.02;21.90;;;;;;;;;;5033093;28;20368;-59
2024/04/07 04:15:35;;;;;;;28.30;20.35;;;;;;;;;;5032910;28;20383;-59
2024/04/07 04:18:02;;;;;;;29.48;20.77;;;;;;;;;;5033250;28;20458;-54
2024/04/07 04:20:27;;;;;;;28.15;20.88;;;;;;;;;;5032537;28;20014;-61
2024/04/07 04:22:53;;;;;;;31.10;20.65;;;;;;;;;;5033075;28;20029;-62
2024/04/07 04:25:18;;;;;;;29.35;20.80;;;;;;;;;;5032458;28;20049;-62
2024/04/07 04:27:44;;;;;;;27.52;20.80;;;;;;;;;;5032905;28;20049;-62
2024/04/07 04:30:10;;;;;;;26.13;20.35;;;;;;;;;;5032756;28;20021;-61
2024/04/07 04:32:35;;;;;;;29.08;20.73;;;;;;;;;;5032279;28;20502;-61
2024/04/07 04:35:01;;;;;;;30.40;20.25;;;;;;;;;;5033146;28;20033;-61
2024/04/07 04:37:26;;;;;;;29.38;19.85;;;;;;;;;;5032623;28;20423;-61
2024/04/07 04:39:52;;;;;;;25.55;19.80;;;;;;;;;;5032569;28;20033;-64
2024/04/07 04:42:17;;;;;;;27.05;19.55;;;;;;;;;;5032488;28;20017;-63
2024/04/07 04:44:42;;;;;;;24.95;19.48;;;;;;;;;;5032716;28;20053;-63
2024/04/07 04:47:08;;;;;;;28.83;18.80;;;;;;;;;;5031419;28;20045;-62
2024/04/07 04:49:33;;;;;;;28.35;19.17;;;;;;;;;;5031967;28;20036;-55
2024/04/07 04:51:59;;;;;;;28.27;19.20;;;;;;;;;;5032704;28;20033;-60
2024/04/07 04:54:24;;;;;;;26.17;18.02;;;;;;;;;;5032529;28;20479;-61
2024/04/07 04:56:50;;;;;;;29.05;19.05;;;;;;;;;;5032549;28;20142;-62
2024/04/07 04:59:15;;;;;;;28.02;18.20;;;;;;;;;;5032433;28;20437;-57
2024/04/07 05:01:40;;;;;;;27.10;18.52;;;;;;;;;;5032368;28;20112;-61
2024/04/07 05:04:06;;;;;;;26.80;19.55;;;;;;;;;;5032300;28;20429;-61
2024/04/07 05:06:31;;;;;;;27.10;19.23;;;;;;;;;;5032564;28;20116;-63
2024/04/07 05:08:56;;;;;;;27.80;19.45;;;;;;;;;;5032495;28;20413;-62
2024/04/07 05:11:22;;;;;;;27.90;20.88;;;;;;;;;;5032341;28;20035;-62
2024/04/07 05:13:47;;;;;;;29.33;20.33;;;;;;;;;;5032337;28;20021;-64
2024/04/07 05:16:13;;;;;;;30.35;21.30;;;;;;;;;;5031860;28;20032;-63
2024/04/07 05:18:39;;;;;;;34.28;21.98;;;;;;;;;;5032197;28;20033;-62
2024/04/07 05:21:06;;;;;;;30.60;21.67;;;;;;;;;;5032436;28;20027;-60
2024/04/07 05:23:36;;;;;;;29.98;22.38;;;;;;;;;;5034158;28;20029;-64
2024/04/07 05:26:27;;;;;;;31.88;23.33;;;;;;;;;;5036117;28;20048;-65
2024/04/07 05:28:53;;;;;;;34.33;23.05;;;;;;;;;;5034870;28;20102;-65
2024/04/07 05:31:18;;;;;;;34.35;23.48;;;;;;;;;;5036113;28;20021;-65
2024/04/07 05:33:45;;;;;;;31.50;22.75;;;;;;;;;;5035079;28;20440;-63
2024/04/07 05:36:10;;;;;;;31.60;23.33;;;;;;;;;;5036188;28;20039;-63
2024/04/07 05:38:37;;;;;;;33.08;24.35;;;;;;;;;;5035528;28;20022;-63
2024/04/07 05:41:02;;;;;;;33.45;24.33;;;;;;;;;;5036104;28;20025;-66
2024/04/07 05:43:28;;;;;;;28.80;23.23;;;;;;;;;;5035886;28;20022;-66
2024/04/07 05:45:53;;;;;;;35.05;23.77;;;;;;;;;;5035434;28;20148;-66
2024/04/07 05:48:20;;;;;;;31.90;22.70;;;;;;;;;;5035494;28;20116;-64
2024/04/07 05:50:46;;;;;;;30.80;22.80;;;;;;;;;;5035914;28;20053;-65
2024/04/07 05:53:11;;;;;;;35.35;22.33;;;;;;;;;;5035751;28;20455;-65
2024/04/07 05:55:37;;;;;;;32.85;21.88;;;;;;;;;;5035143;28;20060;-63
2024/04/07 05:58:03;;;;;;;34.10;22.33;;;;;;;;;;5035486;28;20440;-64
2024/04/07 06:00:30;;;;;;;29.25;21.55;;;;;;;;;;5034298;28;20068;-62
2024/04/07 06:02:55;;;;;;;35.10;21.02;;;;;;;;;;5035294;28;20026;-65
2024/04/07 06:05:20;;;;;;;28.95;20.85;;;;;;;;;;5034984;28;20018;-64
2024/04/07 06:07:46;;;;;;;29.92;21.25;;;;;;;;;;5035970;28;20028;-68
2024/04/07 06:10:11;;;;;;;28.95;21.05;;;;;;;;;;5034858;28;20025;-67
2024/04/07 06:12:37;;;;;;;28.20;19.98;;;;;;;;;;5035817;28;20063;-66
2024/04/07 06:15:04;;;;;;;27.75;20.45;;;;;;;;;;5034056;28;20551;-66
2024/04/07 06:17:30;;;;;;;26.80;20.35;;;;;;;;;;5035269;28;20022;-67
2024/04/07 06:19:55;;;;;;;30.33;20.17;;;;;;;;;;5035216;28;20013;-67
2024/04/07 06:22:21;;;;;;;32.35;19.30;;;;;;;;;;5034776;28;20033;-66
2024/04/07 06:24:47;;;;;;;27.73;17.70;;;;;;;;;;5035174;28;20057;-67
2024/04/07 06:27:12;;;;;;;29.70;19.10;;;;;;;;;;5033758;28;20032;-64
2024/04/07 06:29:37;;;;;;;30.35;19.15;;;;;;;;;;5035295;28;20026;-66
2024/04/07 06:32:03;;;;;;;28.67;19.38;;;;;;;;;;5034557;28;20022;-67
2024/04/07 06:34:30;;;;;;;26.52;18.52;;;;;;;;;;5034197;28;20148;-67
2024/04/07 06:36:55;;;;;;;29.70;18.73;;;;;;;;;;5033854;28;20021;-66
2024/04/07 06:39:21;;;;;;;30.27;19.85;;;;;;;;;;5034825;28;20041;-66
2024/04/07 06:41:46;;;;;;;26.38;18.27;;;;;;;;;;5034784;28;20025;-67
2024/04/07 06:44:11;;;;;;;29.50;18.80;;;;;;;;;;5034524;28;20048;-66
2024/04/07 06:46:37;;;;;;;26.90;18.55;;;;;;;;;;5034411;28;20110;-67
2024/04/07 06:49:02;;;;;;;29.25;19.13;;;;;;;;;;5034750;28;20436;-68
2024/04/07 06:51:28;;;;;;;27.42;19.17;;;;;;;;;;5034779;28;20057;-67
2024/04/07 06:53:53;;;;;;;29.00;18.95;;;;;;;;;;5034507;28;20125;-67
2024/04/07 06:56:19;;;;;;;26.95;18.95;;;;;;;;;;5034042;28;20072;-66
2024/04/07 06:58:44;;;;;;;29.83;19.67;;;;;;;;;;5034307;28;20087;-66
2024/04/07 07:01:10;;;;;;;31.48;19.48;;;;;;;;;;5034584;28;20080;-66
2024/04/07 07:03:35;;;;;;;28.70;18.65;;;;;;;;;;5033835;28;20020;-68
2024/04/07 07:06:01;;;;;;;32.55;18.50;;;;;;;;;;5034206;28;20032;-68
2024/04/07 07:08:26;;;;;;;28.77;18.92;;;;;;;;;;5034135;28;20021;-67
2024/04/07 07:10:59;;;;;;;31.40;18.83;;;;;;;;;;5032364;28;20057;-68
2024/04/07 07:13:25;;;;;;;33.17;18.67;;;;;;;;;;5024109;28;20349;-68
2024/04/07 07:15:50;;;;;;;29.35;18.02;;;;;;;;;;5023708;28;20124;-67
2024/04/07 07:18:16;;;;;;;31.92;19.30;;;;;;;;;;5033074;28;20109;-69
2024/04/07 07:20:41;;;;;;;31.10;18.67;;;;;;;;;;5033486;28;20022;-65
2024/04/07 07:23:07;;;;;;;31.27;19.45;;;;;;;;;;5030616;28;20067;-68
2024/04/07 07:25:32;;;;;;;28.15;19.20;;;;;;;;;;5033292;28;20040;-63
2024/04/07 07:27:57;;;;;;;29.05;19.45;;;;;;;;;;5032267;28;20100;-70
2024/04/07 07:30:23;;;;;;;31.00;19.13;;;;;;;;;;5032392;28;20049;-68
2024/04/07 07:32:49;;;;;;;29.92;17.73;;;;;;;;;;5032868;28;20037;-69
2024/04/07 07:35:15;;;;;;;29.95;18.58;;;;;;;;;;5030633;28;20060;-71
2024/04/07 07:37:40;;;;;;;27.70;17.48;;;;;;;;;;5031483;28;20057;-69
2024/04/07 07:40:07;;;;;;;27.05;18.52;;;;;;;;;;5023864;28;20100;-70
2024/04/07 07:42:32;;;;;;;25.92;17.35;;;;;;;;;;5040293;28;20342;-68
2024/04/07 07:44:58;;;;;;;27.27;17.48;;;;;;;;;;5023512;28;20092;-70
2024/04/07 07:47:23;;;;;;;28.50;17.30;;;;;;;;;;5022580;28;20049;-68
2024/04/07 07:49:49;;;;;;;31.77;17.67;;;;;;;;;;5038975;28;20376;-70
2024/04/07 07:52:14;;;;;;;29.90;18.08;;;;;;;;;;5024128;28;20033;-70
2024/04/07 07:54:40;;;;;;;29.45;17.65;;;;;;;;;;5015632;28;20471;-70
2024/04/07 07:57:06;;;;;;;31.70;18.48;;;;;;;;;;5032950;28;20088;-66
2024/04/07 07:59:31;;;;;;;26.67;17.75;;;;;;;;;;5032873;28;20029;-66
2024/04/07 08:01:56;;;;;;;25.90;17.30;;;;;;;;;;5033157;28;20025;-60
2024/04/07 08:04:22;;;;;;;23.55;16.15;;;;;;;;;;5033497;28;20033;-65
2024/04/07 08:06:47;;;;;;;25.25;16.63;;;;;;;;;;5032418;28;20040;-64
2024/04/07 08:09:13;;;;;;;25.08;16.45;;;;;;;;;;5033137;28;20029;-63
2024/04/07 08:11:38;;;;;;;24.23;17.02;;;;;;;;;;5032711;28;20129;-66
2024/04/07 08:14:04;;;;;;;20.77;16.58;;;;;;;;;;5032821;28;20423;-64
2024/04/07 08:16:29;;;;;;;27.60;16.92;;;;;;;;;;5032820;28;20022;-65
2024/04/07 08:18:55;;;;;;;23.75;16.65;;;;;;;;;;5032799;28;20032;-64
2024/04/07 08:21:21;;;;;;;26.33;16.40;;;;;;;;;;5031107;28;20017;-63
2024/04/07 08:23:47;;;;;;;24.98;16.75;;;;;;;;;;5031614;28;20025;-63
2024/04/07 08:26:13;;;;;;;25.20;16.65;;;;;;;;;;5033054;28;20036;-67
2024/04/07 08:28:38;;;;;;;23.10;16.88;;;;;;;;;;5032637;28;20029;-64
2024/04/07 08:31:03;;;;;;;24.05;16.20;;;;;;;;;;5032691;28;20716;-64
2024/04/07 08:33:29;;;;;;;25.08;17.02;;;;;;;;;;5032576;28;20356;-64
2024/04/07 08:35:55;;;;;;;28.95;16.33;;;;;;;;;;5031789;28;20046;-64
2024/04/07 08:38:20;;;;;;;26.17;16.05;;;;;;;;;;5032942;28;20108;-65
2024/04/07 08:40:47;;;;;;;22.35;16.08;;;;;;;;;;5032520;28;20049;-63
2024/04/07 08:43:12;;;;;;;18.48;16.05;;;;;;;;;;5033030;28;20022;-64
2024/04/07 08:45:39;;;;;;;21.95;16.75;;;;;;;;;;5031743;28;20025;-63
2024/04/07 08:48:05;;;;;;;23.08;15.35;;;;;;;;;;5032005;28;20025;-64
2024/04/07 08:50:31;;;;;;;22.38;16.00;;;;;;;;;;5031130;28;20480;-65
2024/04/07 08:52:57;;;;;;;24.98;16.15;;;;;;;;;;5032063;28;20124;-65
2024/04/07 08:55:23;;;;;;;20.77;16.10;;;;;;;;;;5032149;28;20053;-63
2024/04/07 08:57:49;;;;;;;23.40;17.27;;;;;;;;;;5034908;28;20037;-65
2024/04/07 09:00:15;;;;;;;24.77;16.55;;;;;;;;;;5036353;28;20432;-64
2024/04/07 09:02:41;;;;;;;20.55;14.90;;;;;;;;;;5036169;28;20013;-64
2024/04/07 09:05:06;;;;;;;21.90;15.65;;;;;;;;;;5036314;28;20044;-66
2024/04/07 09:07:32;;;;;;;21.77;14.60;;;;;;;;;;5036575;28;20022;-65
2024/04/07 09:09:57;;;;;;;19.13;14.32;;;;;;;;;;5068731;28;20117;-67
2024/04/07 09:12:23;;;;;;;18.55;14.82;;;;;;;;;;5036541;28;20048;-63
2024/04/07 09:14:49;;;;;;;22.10;14.57;;;;;;;;;;5036079;28;20041;-65
2024/04/07 09:17:14;;;;;;;19.88;13.77;;;;;;;;;;5036152;28;20021;-64
2024/04/07 09:19:40;;;;;;;21.33;14.38;;;;;;;;;;5036091;28;20021;-64
2024/04/07 09:22:06;;;;;;;23.15;16.25;;;;;;;;;;5035887;28;20337;-65
2024/04/07 09:24:32;;;;;;;24.92;15.68;;;;;;;;;;5036069;28;20032;-65
2024/04/07 09:27:04;;;;;;;22.27;16.35;;;;;;;;;;5035706;28;20456;-65
2024/04/07 09:29:29;;;;;;;24.10;17.55;;;;;;;;;;5035780;28;20033;-64
2024/04/07 09:31:55;;;;;;;27.52;16.30;;;;;;;;;;5035668;28;20356;-64
2024/04/07 09:34:21;;;;;;;26.23;16.92;;;;;;;;;;5035587;28;20053;-65
2024/04/07 09:36:46;;;;;;;21.60;16.98;;;;;;;;;;5036177;28;20025;-69
2024/04/07 09:39:12;;;;;;;28.98;17.08;;;;;;;;;;5035579;28;20029;-66
2024/04/07 09:41:37;;;;;;;24.52;16.58;;;;;;;;;;5035716;28;20021;-65
2024/04/07 09:44:06;;;;;;;22.42;15.40;;;;;;;;;;5035880;28;20112;-65
2024/04/07 09:46:35;;;;;;;22.48;15.18;;;;;;;;;;5034411;28;20032;-64
2024/04/07 09:49:02;;;;;;;19.92;14.63;;;;;;;;;;5035685;28;20025;-65
2024/04/07 09:51:30;;;;;;;24.55;13.98;;;;;;;;;;5035703;28;20025;-66
2024/04/07 09:54:00;;;;;;;22.90;14.95;;;;;;;;;;5034940;28;20029;-65
2024/04/07 09:56:29;;;;;;;20.63;13.63;;;;;;;;;;5034122;28;20084;-67
2024/04/07 09:58:54;;;;;;;17.80;11.68;;;;;;;;;;5035187;28;20040;-65
2024/04/07 10:01:21;;;;;;;16.95;9.75;;;;;;;;;;5035661;28;20353;-64
2024/04/07 10:03:48;;;;;;;14.50;9.02;;;;;;;;;;5035652;28;20037;-65
2024/04/07 10:06:14;;;;;;;12.40;9.50;;;;;;;;;;5035387;28;20040;-66
2024/04/07 10:08:39;;;;;;;12.30;8.38;;;;;;;;;;5033159;28;20299;-66
2024/04/07 10:11:13;;;;;;;12.63;9.35;;;;;;;;;;5035444;28;20080;-65
2024/04/07 10:13:38;;;;;;;17.52;9.30;;;;;;;;;;5035371;28;20091;-64
2024/04/07 10:16:04;;;;;;;12.68;8.60;;;;;;;;;;5035155;28;20049;-65
2024/04/07 10:18:29;;;;;;;13.13;9.45;;;;;;;;;;5034698;28;20018;-65
2024/04/07 10:20:55;;;;;;;13.55;9.07;;;;;;;;;;5035609;28;20018;-65
2024/04/07 10:23:24;;;;;;;9.60;8.00;;;;;;;;;;5034864;28;20033;-63
2024/04/07 10:25:50;;;;;;;11.32;7.13;;;;;;;;;;5034210;28;20062;-64
2024/04/07 10:28:16;;;;;;;10.68;6.70;;;;;;;;;;5034951;28;20051;-66
2024/04/07 10:30:51;;;;;;;11.95;6.35;;;;;;;;;;5035095;28;20974;-66
2024/04/07 10:33:16;;;;;;;;;;;;;;;;;;5035965;28;20059;-64
2024/04/07 10:35:42;;;;;;;;;;;;;;;;;;5035056;28;20323;-65
2024/04/07 10:38:07;;;;;;;10.57;6.17;;;;;;;;;;5034558;28;20004;-65
2024/04/07 10:40:32;;;;;;;8.00;5.25;;;;;;;;;;5034995;28;20018;-64
2024/04/07 10:42:59;;;;;;;7.32;5.30;;;;;;;;;;5034607;28;20037;-64
2024/04/07 10:45:25;;;;;;;12.43;6.43;;;;;;;;;;5034737;28;20029;-66
2024/04/07 10:47:50;;;;;;;9.82;6.00;;;;;;;;;;5034418;28;20025;-65
2024/04/07 10:50:18;;;;;;;11.25;6.35;;;;;;;;;;5034694;28;20367;-66
2024/04/07 10:52:43;;;;;;;13.48;6.97;;;;;;;;;;5034480;28;20036;-64
2024/04/07 10:55:09;;;;;;;8.80;6.38;;;;;;;;;;5034094;28;20054;-66
2024/04/07 10:57:34;;;;;;;15.23;7.25;;;;;;;;;;5034320;28;20030;-66
2024/04/07 11:00:00;;;;;;;11.93;6.65;;;;;;;;;;5034400;28;20167;-65
2024/04/07 11:02:25;;;;;;;12.25;7.07;;;;;;;;;;5032931;28;20326;-64
2024/04/07 11:04:50;;;;;;;9.32;6.85;;;;;;;;;;5034616;28;20044;-64
2024/04/07 11:07:16;;;;;;;9.60;7.07;;;;;;;;;;5033312;28;20025;-66
2024/04/07 11:09:42;;;;;;;10.88;6.53;;;;;;;;;;5034111;28;20323;-65
2024/04/07 11:12:08;;;;;;;11.35;6.55;;;;;;;;;;5033878;28;20026;-66
2024/04/07 11:14:33;;;;;;;10.07;6.47;;;;;;;;;;5033132;28;20040;-64
2024/04/07 11:17:06;;;;;;;8.13;6.75;;;;;;;;;;5034000;28;20025;-65
2024/04/07 11:19:35;;;;;;;11.90;6.78;;;;;;;;;;5033732;28;20095;-64
2024/04/07 11:22:01;;;;;;;12.10;7.75;;;;;;;;;;5033182;28;20036;-65
2024/04/07 11:24:27;;;;;;;11.80;7.63;;;;;;;;;;5033275;28;20022;-66
2024/04/07 11:26:53;;;;;;;11.85;7.57;;;;;;;;;;5034245;28;20025;-66
2024/04/07 11:29:19;;;;;;;10.32;6.78;;;;;;;;;;5033848;28;20088;-65
2024/04/07 11:31:55;;;;;;;21.42;7.38;;;;;;;;;;5033845;28;20025;-66
2024/04/07 11:34:20;;;;;;;13.63;6.68;;;;;;;;;;5033530;28;20035;-64
2024/04/07 11:36:47;;;;;;;12.25;7.28;;;;;;;;;;5015491;28;20505;-66
2024/04/07 11:39:13;;;;;;;10.15;6.25;;;;;;;;;;5033597;28;20099;-66
2024/04/07 11:41:38;;;;;;;8.52;5.50;;;;;;;;;;5033700;28;20037;-66
2024/04/07 11:44:04;;;;;;;8.75;5.80;;;;;;;;;;5033443;28;20017;-66
2024/04/07 11:46:29;;;;;;;9.88;5.22;;;;;;;;;;5032376;28;20021;-65
2024/04/07 11:48:55;;;;;;;11.40;5.85;;;;;;;;;;5033585;28;20029;-65
2024/04/07 11:51:20;;;;;;;8.25;5.50;;;;;;;;;;5032445;28;20409;-65
2024/04/07 11:53:46;;;;;;;11.65;5.63;;;;;;;;;;5032562;28;20022;-64
2024/04/07 11:56:12;;;;;;;7.53;5.28;;;;;;;;;;5033393;28;20045;-64
2024/04/07 11:58:37;;;;;;;7.57;5.35;;;;;;;;;;5033432;28;20043;-68
2024/04/07 12:01:02;;;;;;;11.68;5.47;;;;;;;;;;5033160;28;20451;-66
2024/04/07 12:03:28;;;;;;;8.77;5.05;;;;;;;;;;5033105;28;20099;-64
2024/04/07 12:05:53;;;;;;;9.52;5.43;;;;;;;;;;5033546;28;20028;-65
2024/04/07 12:08:19;;;;;;;10.38;4.88;;;;;;;;;;5033443;28;20416;-66
2024/04/07 12:10:44;;;;;;;8.90;5.50;;;;;;;;;;5032727;28;20463;-66
2024/04/07 12:13:10;;;;;;;7.60;4.75;;;;;;;;;;5033239;28;20112;-64
2024/04/07 12:15:35;;;;;;;9.88;5.03;;;;;;;;;;5033164;28;20113;-64
2024/04/07 12:18:00;;;;;;;11.77;6.22;;;;;;;;;;5033419;28;20018;-67
2024/04/07 12:20:26;;;;;;;11.27;5.60;;;;;;;;;;5032309;28;20120;-66
2024/04/07 12:22:51;;;;;;;9.40;5.70;;;;;;;;;;5032865;28;20055;-67
2024/04/07 12:25:16;;;;;;;9.15;5.60;;;;;;;;;;5032673;28;20053;-65
2024/04/07 12:27:43;;;;;;;9.40;5.43;;;;;;;;;;5032212;28;20137;-67
2024/04/07 12:30:08;;;;;;;10.32;5.43;;;;;;;;;;5031798;28;20500;-67
2024/04/07 12:32:34;;;;;;;11.45;5.95;;;;;;;;;;5032734;28;20035;-65
2024/04/07 12:34:59;;;;;;;9.23;5.25;;;;;;;;;;5032743;28;20039;-65
2024/04/07 12:37:25;;;;;;;12.00;5.55;;;;;;;;;;5031819;28;20052;-67
2024/04/07 12:39:50;;;;;;;12.52;5.28;;;;;;;;;;5032670;28;20017;-66
2024/04/07 12:42:15;;;;;;;7.40;5.47;;;;;;;;;;5032554;28;20028;-65
2024/04/07 12:44:41;;;;;;;7.40;4.88;;;;;;;;;;5032606;28;20445;-66
2024/04/07 12:47:06;;;;;;;9.13;5.32;;;;;;;;;;5032593;28;20021;-66
2024/04/07 12:49:32;;;;;;;8.98;5.40;;;;;;;;;;5032350;28;20021;-66
2024/04/07 12:51:57;;;;;;;11.00;5.05;;;;;;;;;;5031847;28;20344;-67
2024/04/07 12:54:23;;;;;;;10.85;5.20;;;;;;;;;;5032383;28;20068;-65
2024/04/07 12:56:48;;;;;;;8.38;5.13;;;;;;;;;;5032537;28;20034;-65
2024/04/07 12:59:14;;;;;;;8.63;5.45;;;;;;;;;;5031610;28;20029;-65
2024/04/07 13:01:39;;;;;;;9.98;5.00;;;;;;;;;;5032715;28;20444;-65
2024/04/07 13:04:05;;;;;;;12.25;5.85;;;;;;;;;;5032598;28;20021;-65
2024/04/07 13:06:31;;;;;;;11.13;5.25;;;;;;;;;;5032325;28;20034;-65
2024/04/07 13:08:57;;;;;;;8.88;5.18;;;;;;;;;;5032800;28;20039;-65
2024/04/07 13:11:22;;;;;;;8.75;4.85;;;;;;;;;;5031391;28;20038;-64
2024/04/07 13:13:48;;;;;;;8.32;4.97;;;;;;;;;;5032428;28;20067;-64
2024/04/07 13:16:14;;;;;;;13.30;5.43;;;;;;;;;;5032152;28;20431;-65
2024/04/07 13:18:39;;;;;;;10.38;5.55;;;;;;;;;;5031326;28;20032;-65
2024/04/07 13:21:04;;;;;;;10.57;5.35;;;;;;;;;;5032358;28;20317;-65
2024/04/07 13:23:30;;;;;;;32.33;5.78;;;;;;;;;;5033025;28;20337;-66
2024/04/07 13:25:56;;;;;;;7.80;4.78;;;;;;;;;;5031834;28;20033;-65
2024/04/07 13:28:21;;;;;;;9.88;4.97;;;;;;;;;;5014454;28;20017;-65
2024/04/07 13:30:47;;;;;;;12.10;5.00;;;;;;;;;;5031829;28;20040;-64
2024/04/07 13:33:13;;;;;;;8.82;4.60;;;;;;;;;;5031415;28;20029;-63
2024/04/07 13:35:39;;;;;;;7.88;4.68;;;;;;;;;;5031933;28;20037;-65
2024/04/07 13:38:05;;;;;;;10.15;5.13;;;;;;;;;;5032104;28;20025;-64
2024/04/07 13:40:30;;;;;;;8.63;4.25;;;;;;;;;;5031850;28;20013;-66
2024/04/07 13:42:55;;;;;;;9.57;4.60;;;;;;;;;;5014979;28;20357;-65
2024/04/07 13:45:21;;;;;;;10.30;4.63;;;;;;;;;;5034149;28;20110;-67
2024/04/07 13:47:47;;;;;;;8.65;4.55;;;;;;;;;;5034453;28;20021;-64
2024/04/07 13:50:12;;;;;;;9.57;4.35;;;;;;;;;;5017778;28;20017;-72
2024/04/07 13:52:38;;;;;;;9.13;5.18;;;;;;;;;;5034747;28;20116;-77
2024/04/07 13:55:04;;;;;;;9.68;5.18;;;;;;;;;;5034097;28;20045;-69
2024/04/07 13:57:31;;;;;;;7.90;5.32;;;;;;;;;;5035878;28;20029;-77
2024/04/07 13:59:56;;;;;;;9.85;4.80;;;;;;;;;;5036144;28;20026;-76
2024/04/07 14:02:22;;;;;;;13.32;4.57;;;;;;;;;;5036576;28;20037;-77
2024/04/07 14:04:47;;;;;;;8.52;4.07;;;;;;;;;;5035346;28;20033;-76
2024/04/07 14:07:12;;;;;;;11.95;4.03;;;;;;;;;;5035348;28;20440;-74
2024/04/07 14:09:38;;;;;;;7.40;3.83;;;;;;;;;;5033979;28;20021;-75
2024/04/07 14:12:03;;;;;;;10.00;3.55;;;;;;;;;;5035825;28;20056;-75
2024/04/07 14:14:30;;;;;;;5.78;3.22;;;;;;;;;;5035351;28;20029;-75
2024/04/07 14:16:56;;;;;;;7.22;3.30;;;;;;;;;;5035486;28;20017;-75
2024/04/07 14:19:21;;;;;;;6.32;3.50;;;;;;;;;;5035334;28;20044;-75